createdAt,value
2019-01-25T00:00:13.568Z,-1.27
2019-01-25T00:00:54.463Z,-1.26
2019-01-25T00:01:35.033Z,-1.26
2019-01-25T00:02:15.635Z,-1.15
2019-01-25T00:02:56.235Z,-1.17
2019-01-25T00:03:36.823Z,-1.22
2019-01-25T00:04:17.405Z,-1.26
2019-01-25T00:04:57.988Z,-1.29
2019-01-25T00:05:38.582Z,-1.23
2019-01-25T00:06:19.166Z,-1.26
2019-01-25T00:06:59.771Z,-1.23
2019-01-25T00:07:40.340Z,-1.26
2019-01-25T00:08:20.957Z,-1.25
2019-01-25T00:09:01.550Z,-1.25
2019-01-25T00:09:42.165Z,-1.22
2019-01-25T00:10:22.755Z,-1.19
2019-01-25T00:11:03.339Z,-1.23
2019-01-25T00:11:43.923Z,-1.27
2019-01-25T00:12:24.520Z,-1.23
2019-01-25T00:13:05.113Z,-1.26
2019-01-25T00:13:45.703Z,-1.3
2019-01-25T00:14:26.304Z,-1.23
2019-01-25T00:15:06.908Z,-1.29
2019-01-25T00:15:47.498Z,-1.38
2019-01-25T00:16:28.078Z,-1.38
2019-01-25T00:17:08.681Z,-1.37
2019-01-25T00:17:49.266Z,-1.33
2019-01-25T00:18:29.872Z,-1.4
2019-01-25T00:19:10.469Z,-1.29
2019-01-25T00:19:51.045Z,-1.37
2019-01-25T00:20:31.624Z,-1.29
2019-01-25T00:21:12.223Z,-1.38
2019-01-25T00:21:52.795Z,-1.29
2019-01-25T00:22:33.398Z,-1.29
2019-01-25T00:23:13.999Z,-1.38
2019-01-25T00:23:54.659Z,-1.37
2019-01-25T00:24:35.191Z,-1.44
2019-01-25T00:25:15.781Z,-1.41
2019-01-25T00:25:56.356Z,-1.41
2019-01-25T00:26:36.965Z,-1.32
2019-01-25T00:27:17.554Z,-1.27
2019-01-25T00:27:58.139Z,-1.3
2019-01-25T00:28:38.740Z,-1.23
2019-01-25T00:29:19.293Z,-1.25
2019-01-25T00:29:59.899Z,-1.26
2019-01-25T00:30:40.472Z,-1.35
2019-01-25T00:31:21.056Z,-1.26
2019-01-25T00:32:01.638Z,-1.27
2019-01-25T00:32:42.229Z,-1.27
2019-01-25T00:33:22.814Z,-1.29
2019-01-25T00:34:03.409Z,-1.23
2019-01-25T00:34:43.985Z,-1.29
2019-01-25T00:35:24.572Z,-1.27
2019-01-25T00:36:05.153Z,-1.19
2019-01-25T00:36:45.755Z,-1.22
2019-01-25T00:37:26.340Z,-1.35
2019-01-25T00:38:06.907Z,-1.23
2019-01-25T00:38:47.499Z,-1.26
2019-01-25T00:39:28.088Z,-1.2
2019-01-25T00:40:08.681Z,-1.25
2019-01-25T00:40:49.256Z,-1.2
2019-01-25T00:41:29.836Z,-1.2
2019-01-25T00:42:10.412Z,-1.2
2019-01-25T00:42:50.997Z,-1.19
2019-01-25T00:43:31.564Z,-1.15
2019-01-25T00:44:12.161Z,-1.17
2019-01-25T00:44:52.753Z,-1.15
2019-01-25T00:45:33.353Z,-1.2
2019-01-25T00:46:13.934Z,-1.29
2019-01-25T00:46:54.532Z,-1.22
2019-01-25T00:47:35.140Z,-1.14
2019-01-25T00:48:15.715Z,-1.26
2019-01-25T00:48:56.599Z,-1.26
2019-01-25T00:49:36.941Z,-1.26
2019-01-25T00:50:17.540Z,-1.25
2019-01-25T00:50:58.123Z,-1.15
2019-01-25T00:51:38.719Z,-1.22
2019-01-25T00:52:19.305Z,-1.35
2019-01-25T00:52:59.899Z,-1.35
2019-01-25T00:53:40.478Z,-1.25
2019-01-25T00:54:21.051Z,-1.3
2019-01-25T00:55:01.674Z,-1.22
2019-01-25T00:55:42.280Z,-1.27
2019-01-25T00:56:22.876Z,-1.22
2019-01-25T00:57:03.458Z,-1.3
2019-01-25T00:57:44.058Z,-1.23
2019-01-25T00:58:24.633Z,-1.26
2019-01-25T00:59:05.234Z,-1.35
2019-01-25T00:59:45.826Z,-1.41
2019-01-25T01:00:26.425Z,-1.4
2019-01-25T01:01:07.050Z,-1.38
2019-01-25T01:01:47.633Z,-1.38
2019-01-25T01:02:28.221Z,-1.4
2019-01-25T01:03:08.812Z,-1.29
2019-01-25T01:03:49.409Z,-1.27
2019-01-25T01:04:29.998Z,-1.38
2019-01-25T01:05:10.603Z,-1.4
2019-01-25T01:05:51.181Z,-1.33
2019-01-25T01:06:31.775Z,-1.43
2019-01-25T01:07:12.352Z,-1.38
2019-01-25T01:07:52.932Z,-1.47
2019-01-25T01:08:33.518Z,-1.38
2019-01-25T01:09:14.107Z,-1.43
2019-01-25T01:09:54.697Z,-1.44
2019-01-25T01:10:35.264Z,-1.38
2019-01-25T01:11:15.861Z,-1.37
2019-01-25T01:11:56.436Z,-1.35
2019-01-25T01:12:37.063Z,-1.38
2019-01-25T01:13:17.677Z,-1.37
2019-01-25T01:13:58.272Z,-1.4
2019-01-25T01:14:38.851Z,-1.35
2019-01-25T01:15:19.463Z,-1.41
2019-01-25T01:16:00.033Z,-1.35
2019-01-25T01:16:40.619Z,-1.35
2019-01-25T01:17:21.190Z,-1.33
2019-01-25T01:18:01.785Z,-1.32
2019-01-25T01:18:42.366Z,-1.41
2019-01-25T01:19:22.951Z,-1.32
2019-01-25T01:20:03.526Z,-1.37
2019-01-25T01:20:44.107Z,-1.35
2019-01-25T01:21:24.727Z,-1.41
2019-01-25T01:22:07.236Z,-1.37
2019-01-25T01:22:47.823Z,-1.35
2019-01-25T01:23:31.213Z,-1.4
2019-01-25T01:24:11.822Z,-1.38
2019-01-25T01:24:52.409Z,-1.35
2019-01-25T01:25:32.990Z,-1.3
2019-01-25T01:26:13.541Z,-1.3
2019-01-25T01:26:54.139Z,-1.29
2019-01-25T01:27:34.744Z,-1.23
2019-01-25T01:28:15.329Z,-1.3
2019-01-25T01:28:55.906Z,-1.25
2019-01-25T01:29:36.479Z,-1.26
2019-01-25T01:30:17.054Z,-1.29
2019-01-25T01:30:57.650Z,-1.2
2019-01-25T01:31:38.219Z,-1.22
2019-01-25T01:32:18.798Z,-1.29
2019-01-25T01:32:59.383Z,-1.29
2019-01-25T01:33:39.967Z,-1.2
2019-01-25T01:34:20.549Z,-1.23
2019-01-25T01:35:01.124Z,-1.2
2019-01-25T01:35:41.702Z,-1.27
2019-01-25T01:36:22.280Z,-1.26
2019-01-25T01:37:02.882Z,-1.23
2019-01-25T01:37:43.455Z,-1.29
2019-01-25T01:38:24.049Z,-1.26
2019-01-25T01:39:04.622Z,-1.25
2019-01-25T01:39:45.233Z,-1.2
2019-01-25T01:40:25.808Z,-1.2
2019-01-25T01:41:06.389Z,-1.25
2019-01-25T01:41:46.950Z,-1.29
2019-01-25T01:42:27.536Z,-1.25
2019-01-25T01:43:08.129Z,-1.2
2019-01-25T01:43:48.930Z,-1.17
2019-01-25T01:44:29.528Z,-1.17
2019-01-25T01:45:10.118Z,-1.22
2019-01-25T01:45:50.737Z,-1.19
2019-01-25T01:46:31.314Z,-1.19
2019-01-25T01:47:11.889Z,-1.14
2019-01-25T01:47:52.455Z,-1.19
2019-01-25T01:48:33.062Z,-1.2
2019-01-25T01:49:13.646Z,-1.12
2019-01-25T01:49:54.222Z,-1.15
2019-01-25T01:50:34.823Z,-1.19
2019-01-25T01:51:15.407Z,-1.22
2019-01-25T01:51:56.005Z,-1.2
2019-01-25T01:52:36.611Z,-1.14
2019-01-25T01:53:17.179Z,-1.07
2019-01-25T01:53:57.749Z,-1.2
2019-01-25T01:54:38.361Z,-1.07
2019-01-25T01:55:18.926Z,-1.14
2019-01-25T01:55:59.542Z,-1.17
2019-01-25T01:56:40.108Z,-1.15
2019-01-25T01:57:20.688Z,-1.15
2019-01-25T01:58:01.270Z,-1.15
2019-01-25T01:58:41.912Z,-1.19
2019-01-25T01:59:22.526Z,-1.15
2019-01-25T02:00:03.121Z,-1.11
2019-01-25T02:00:43.701Z,-1.17
2019-01-25T02:01:24.304Z,-1.19
2019-01-25T02:02:04.855Z,-1.17
2019-01-25T02:02:45.431Z,-1.14
2019-01-25T02:03:26.005Z,-1.19
2019-01-25T02:04:06.613Z,-1.15
2019-01-25T02:04:47.197Z,-1.14
2019-01-25T02:05:27.769Z,-1.14
2019-01-25T02:06:08.354Z,-1.09
2019-01-25T02:06:48.919Z,-1.08
2019-01-25T02:07:29.515Z,-1.07
2019-01-25T02:08:10.090Z,-1.09
2019-01-25T02:08:50.718Z,-1.11
2019-01-25T02:09:31.328Z,-1.15
2019-01-25T02:10:11.935Z,-1.19
2019-01-25T02:10:52.516Z,-1.05
2019-01-25T02:11:33.100Z,-1.15
2019-01-25T02:12:13.667Z,-1.07
2019-01-25T02:12:54.265Z,-1.14
2019-01-25T02:13:34.860Z,-1.17
2019-01-25T02:14:15.469Z,-1.17
2019-01-25T02:14:56.084Z,-1.15
2019-01-25T02:15:36.618Z,-1.14
2019-01-25T02:16:17.220Z,-1.2
2019-01-25T02:16:57.794Z,-1.17
2019-01-25T02:17:38.394Z,-1.19
2019-01-25T02:18:18.966Z,-1.19
2019-01-25T02:18:59.542Z,-1.12
2019-01-25T02:19:40.116Z,-1.07
2019-01-25T02:20:20.716Z,-1.07
2019-01-25T02:21:01.290Z,-1.08
2019-01-25T02:21:41.865Z,-1.08
2019-01-25T02:22:22.425Z,-1.08
2019-01-25T02:23:03.029Z,-1.07
2019-01-25T02:23:43.606Z,-1.01
2019-01-25T02:24:24.179Z,-1.07
2019-01-25T02:25:04.774Z,-1.05
2019-01-25T02:25:45.372Z,-1.05
2019-01-25T02:26:25.955Z,-1.01
2019-01-25T02:27:06.538Z,-0.93
2019-01-25T02:27:47.175Z,-1.09
2019-01-25T02:28:27.758Z,-1.08
2019-01-25T02:29:08.385Z,-1.07
2019-01-25T02:29:48.993Z,-1.07
2019-01-25T02:30:29.619Z,-1.11
2019-01-25T02:31:10.181Z,-1.17
2019-01-25T02:31:50.776Z,-1.08
2019-01-25T02:32:31.438Z,-1.17
2019-01-25T02:33:12.088Z,-1.12
2019-01-25T02:33:52.662Z,-1.12
2019-01-25T02:34:33.363Z,-1.19
2019-01-25T02:35:13.963Z,-1.09
2019-01-25T02:35:54.604Z,-1.17
2019-01-25T02:36:35.209Z,-1.14
2019-01-25T02:37:15.800Z,-1.12
2019-01-25T02:37:56.404Z,-1.05
2019-01-25T02:38:37.033Z,-1.15
2019-01-25T02:39:17.682Z,-1.2
2019-01-25T02:39:58.280Z,-1.19
2019-01-25T02:40:39.454Z,-1.22
2019-01-25T02:41:19.460Z,-1.22
2019-01-25T02:42:00.092Z,-1.19
2019-01-25T02:42:40.681Z,-1.17
2019-01-25T02:43:21.298Z,-1.19
2019-01-25T02:44:01.973Z,-1.15
2019-01-25T02:44:42.567Z,-1.17
2019-01-25T02:45:23.180Z,-1.11
2019-01-25T02:46:03.797Z,-1.12
2019-01-25T02:46:44.376Z,-1.15
2019-01-25T02:47:24.969Z,-1.17
2019-01-25T02:48:05.541Z,-1.17
2019-01-25T02:48:46.131Z,-1.08
2019-01-25T02:49:26.718Z,-1.14
2019-01-25T02:50:07.289Z,-1.14
2019-01-25T02:50:47.907Z,-1.14
2019-01-25T02:51:28.509Z,-1.05
2019-01-25T02:52:09.092Z,-1.15
2019-01-25T02:52:49.662Z,-1.08
2019-01-25T02:53:30.252Z,-1.07
2019-01-25T02:54:10.901Z,-1.11
2019-01-25T02:54:51.410Z,-1.09
2019-01-25T02:55:31.965Z,-1.15
2019-01-25T02:56:12.556Z,-1.12
2019-01-25T02:56:53.136Z,-1.11
2019-01-25T02:57:33.725Z,-1.07
2019-01-25T02:58:14.303Z,-1.14
2019-01-25T02:58:54.879Z,-1.11
2019-01-25T02:59:35.463Z,-1.15
2019-01-25T03:00:16.034Z,-1.15
2019-01-25T03:00:56.621Z,-1.07
2019-01-25T03:01:37.193Z,-1.15
2019-01-25T03:02:17.777Z,-1.07
2019-01-25T03:02:58.354Z,-1.14
2019-01-25T03:03:38.947Z,-1.11
2019-01-25T03:04:19.523Z,-1.19
2019-01-25T03:05:00.120Z,-1.15
2019-01-25T03:05:40.696Z,-1.19
2019-01-25T03:06:21.295Z,-1.23
2019-01-25T03:07:01.879Z,-1.15
2019-01-25T03:07:42.481Z,-1.15
2019-01-25T03:08:23.067Z,-1.2
2019-01-25T03:09:03.666Z,-1.2
2019-01-25T03:09:44.251Z,-1.19
2019-01-25T03:10:28.751Z,-1.19
2019-01-25T03:11:05.432Z,-1.15
2019-01-25T03:11:46.003Z,-1.15
2019-01-25T03:12:26.584Z,-1.23
2019-01-25T03:13:07.169Z,-1.15
2019-01-25T03:13:47.751Z,-1.19
2019-01-25T03:14:28.354Z,-1.25
2019-01-25T03:15:08.939Z,-1.3
2019-01-25T03:15:49.540Z,-1.19
2019-01-25T03:16:30.141Z,-1.2
2019-01-25T03:17:10.745Z,-1.17
2019-01-25T03:17:51.330Z,-1.12
2019-01-25T03:18:31.929Z,-1.19
2019-01-25T03:19:12.511Z,-1.12
2019-01-25T03:19:53.080Z,-1.22
2019-01-25T03:20:33.669Z,-1.17
2019-01-25T03:21:14.236Z,-1.2
2019-01-25T03:21:54.817Z,-1.17
2019-01-25T03:22:35.392Z,-1.2
2019-01-25T03:23:15.968Z,-1.15
2019-01-25T03:23:56.553Z,-1.19
2019-01-25T03:24:37.130Z,-1.25
2019-01-25T03:25:17.703Z,-1.14
2019-01-25T03:25:58.284Z,-1.19
2019-01-25T03:26:38.855Z,-1.2
2019-01-25T03:27:19.452Z,-1.17
2019-01-25T03:28:00.022Z,-1.15
2019-01-25T03:28:40.613Z,-1.22
2019-01-25T03:29:21.190Z,-1.15
2019-01-25T03:30:01.776Z,-1.19
2019-01-25T03:30:42.358Z,-1.15
2019-01-25T03:31:22.934Z,-1.15
2019-01-25T03:32:03.519Z,-1.23
2019-01-25T03:32:44.115Z,-1.3
2019-01-25T03:33:24.676Z,-1.14
2019-01-25T03:34:05.249Z,-1.29
2019-01-25T03:34:45.835Z,-1.26
2019-01-25T03:35:26.406Z,-1.29
2019-01-25T03:36:06.989Z,-1.27
2019-01-25T03:36:47.562Z,-1.26
2019-01-25T03:37:28.146Z,-1.15
2019-01-25T03:38:08.713Z,-1.27
2019-01-25T03:38:49.314Z,-1.17
2019-01-25T03:39:29.886Z,-1.2
2019-01-25T03:40:10.473Z,-1.2
2019-01-25T03:40:55.042Z,-1.22
2019-01-25T03:41:31.681Z,-1.22
2019-01-25T03:42:12.267Z,-1.14
2019-01-25T03:42:52.842Z,-1.15
2019-01-25T03:43:33.428Z,-1.12
2019-01-25T03:44:13.993Z,-1.14
2019-01-25T03:44:54.578Z,-1.15
2019-01-25T03:45:35.173Z,-1.08
2019-01-25T03:46:15.774Z,-1.12
2019-01-25T03:46:56.360Z,-1.12
2019-01-25T03:47:36.966Z,-1.11
2019-01-25T03:48:17.537Z,-1.12
2019-01-25T03:48:58.119Z,-1.15
2019-01-25T03:49:38.698Z,-1.09
2019-01-25T03:50:19.301Z,-1.02
2019-01-25T03:50:59.902Z,-1.19
2019-01-25T03:51:40.483Z,-1.22
2019-01-25T03:52:21.078Z,-1.19
2019-01-25T03:53:01.653Z,-1.15
2019-01-25T03:53:42.245Z,-1.23
2019-01-25T03:54:22.837Z,-1.17
2019-01-25T03:55:03.448Z,-1.2
2019-01-25T03:55:44.035Z,-1.17
2019-01-25T03:56:24.639Z,-1.17
2019-01-25T03:57:05.220Z,-1.23
2019-01-25T03:57:45.807Z,-1.22
2019-01-25T03:58:26.380Z,-1.17
2019-01-25T03:59:06.959Z,-1.15
2019-01-25T03:59:47.534Z,-1.19
2019-01-25T04:00:28.130Z,-1.17
2019-01-25T04:01:08.721Z,-1.17
2019-01-25T04:01:49.288Z,-1.19
2019-01-25T04:02:29.872Z,-1.15
2019-01-25T04:03:10.459Z,-1.19
2019-01-25T04:03:51.054Z,-1.17
2019-01-25T04:04:31.665Z,-1.15
2019-01-25T04:05:12.245Z,-1.09
2019-01-25T04:05:52.841Z,-1.14
2019-01-25T04:06:33.435Z,-1.17
2019-01-25T04:07:14.009Z,-1.19
2019-01-25T04:07:54.587Z,-1.2
2019-01-25T04:08:35.157Z,-1.17
2019-01-25T04:09:15.767Z,-1.17
2019-01-25T04:09:56.343Z,-1.2
2019-01-25T04:10:36.934Z,-1.15
2019-01-25T04:11:17.505Z,-1.15
2019-01-25T04:11:58.102Z,-1.26
2019-01-25T04:12:38.677Z,-1.19
2019-01-25T04:13:19.255Z,-1.15
2019-01-25T04:13:59.845Z,-1.22
2019-01-25T04:14:40.421Z,-1.22
2019-01-25T04:15:21.004Z,-1.14
2019-01-25T04:16:01.583Z,-1.11
2019-01-25T04:16:42.181Z,-1.14
2019-01-25T04:17:22.754Z,-1.14
2019-01-25T04:18:03.357Z,-1.12
2019-01-25T04:18:43.951Z,-1.11
2019-01-25T04:19:24.556Z,-1.15
2019-01-25T04:20:05.155Z,-1.08
2019-01-25T04:20:45.742Z,-1.14
2019-01-25T04:21:26.354Z,-1.09
2019-01-25T04:22:06.949Z,-1.01
2019-01-25T04:22:47.532Z,-1.08
2019-01-25T04:23:28.113Z,-0.93
2019-01-25T04:24:08.695Z,-1.05
2019-01-25T04:24:49.249Z,-0.97
2019-01-25T04:25:29.845Z,-0.99
2019-01-25T04:26:10.430Z,-0.91
2019-01-25T04:26:51.006Z,-0.96
2019-01-25T04:27:31.613Z,-0.9
2019-01-25T04:28:12.201Z,-0.89
2019-01-25T04:28:52.798Z,-0.93
2019-01-25T04:29:33.384Z,-0.91
2019-01-25T04:30:13.951Z,-0.91
2019-01-25T04:30:54.550Z,-0.89
2019-01-25T04:31:35.172Z,-0.89
2019-01-25T04:32:15.754Z,-0.93
2019-01-25T04:32:56.323Z,-0.89
2019-01-25T04:33:36.963Z,-0.94
2019-01-25T04:34:17.497Z,-0.89
2019-01-25T04:34:58.087Z,-0.9
2019-01-25T04:35:38.680Z,-0.91
2019-01-25T04:36:19.259Z,-0.91
2019-01-25T04:36:59.854Z,-0.93
2019-01-25T04:37:40.445Z,-0.9
2019-01-25T04:38:21.068Z,-0.96
2019-01-25T04:39:01.656Z,-0.94
2019-01-25T04:39:42.243Z,-0.94
2019-01-25T04:40:22.822Z,-0.91
2019-01-25T04:41:11.122Z,-0.93
2019-01-25T04:41:44.015Z,-0.85
2019-01-25T04:42:24.615Z,-0.93
2019-01-25T04:43:05.221Z,-0.85
2019-01-25T04:43:45.820Z,-0.89
2019-01-25T04:44:26.420Z,-0.86
2019-01-25T04:45:07.006Z,-0.85
2019-01-25T04:45:47.587Z,-0.96
2019-01-25T04:46:28.182Z,-0.89
2019-01-25T04:47:08.768Z,-0.86
2019-01-25T04:47:49.350Z,-0.91
2019-01-25T04:48:29.950Z,-0.9
2019-01-25T04:49:10.521Z,-0.86
2019-01-25T04:49:51.162Z,-0.89
2019-01-25T04:50:39.241Z,-0.83
2019-01-25T04:51:19.827Z,-0.82
2019-01-25T04:52:00.406Z,-0.86
2019-01-25T04:52:41.007Z,-0.86
2019-01-25T04:53:21.590Z,-0.9
2019-01-25T04:54:02.164Z,-0.85
2019-01-25T04:54:42.730Z,-0.85
2019-01-25T04:55:23.351Z,-0.85
2019-01-25T04:56:03.949Z,-0.83
2019-01-25T04:56:44.536Z,-0.89
2019-01-25T04:57:25.113Z,-0.72
2019-01-25T04:58:05.689Z,-0.78
2019-01-25T04:58:46.276Z,-0.85
2019-01-25T04:59:26.858Z,-0.75
2019-01-25T05:00:07.458Z,-0.78
2019-01-25T05:00:48.012Z,-0.8
2019-01-25T05:01:28.599Z,-0.78
2019-01-25T05:02:09.223Z,-0.74
2019-01-25T05:02:49.797Z,-0.78
2019-01-25T05:03:30.369Z,-0.74
2019-01-25T05:04:10.930Z,-0.78
2019-01-25T05:04:51.483Z,-0.74
2019-01-25T05:05:32.061Z,-0.71
2019-01-25T05:06:12.622Z,-0.72
2019-01-25T05:06:53.181Z,-0.74
2019-01-25T05:07:33.722Z,-0.72
2019-01-25T05:08:15.916Z,-0.75
2019-01-25T05:08:54.824Z,-0.75
2019-01-25T05:09:35.383Z,-0.77
2019-01-25T05:10:15.947Z,-0.7
2019-01-25T05:10:56.502Z,-0.71
2019-01-25T05:11:37.076Z,-0.7
2019-01-25T05:12:17.623Z,-0.75
2019-01-25T05:12:58.190Z,-0.74
2019-01-25T05:13:38.738Z,-0.77
2019-01-25T05:14:19.296Z,-0.72
2019-01-25T05:14:59.847Z,-0.71
2019-01-25T05:15:40.416Z,-0.74
2019-01-25T05:16:20.990Z,-0.72
2019-01-25T05:17:01.525Z,-0.71
2019-01-25T05:17:42.089Z,-0.71
2019-01-25T05:18:22.658Z,-0.74
2019-01-25T05:19:03.210Z,-0.71
2019-01-25T05:19:43.811Z,-0.71
2019-01-25T05:20:24.356Z,-0.72
2019-01-25T05:21:04.907Z,-0.74
2019-01-25T05:21:45.475Z,-0.72
2019-01-25T05:22:26.027Z,-0.75
2019-01-25T05:23:06.588Z,-0.75
2019-01-25T05:23:47.146Z,-0.7
2019-01-25T05:24:27.712Z,-0.71
2019-01-25T05:25:08.278Z,-0.74
2019-01-25T05:25:48.871Z,-0.71
2019-01-25T05:26:29.424Z,-0.75
2019-01-25T05:27:09.994Z,-0.77
2019-01-25T05:27:50.547Z,-0.8
2019-01-25T05:28:31.104Z,-0.91
2019-01-25T05:29:11.692Z,-0.82
2019-01-25T05:29:52.252Z,-0.83
2019-01-25T05:30:32.803Z,-0.86
2019-01-25T05:31:13.358Z,-0.83
2019-01-25T05:31:53.913Z,-0.89
2019-01-25T05:32:34.502Z,-0.8
2019-01-25T05:33:15.052Z,-0.78
2019-01-25T05:33:55.609Z,-0.89
2019-01-25T05:34:36.183Z,-0.89
2019-01-25T05:35:16.741Z,-0.86
2019-01-25T05:35:57.311Z,-0.72
2019-01-25T05:36:37.892Z,-0.83
2019-01-25T05:37:18.444Z,-0.85
2019-01-25T05:37:59.017Z,-0.74
2019-01-25T05:38:39.574Z,-0.77
2019-01-25T05:39:20.142Z,-0.78
2019-01-25T05:40:00.693Z,-0.71
2019-01-25T05:40:41.269Z,-0.62
2019-01-25T05:41:28.147Z,-0.71
2019-01-25T05:42:02.434Z,-0.71
2019-01-25T05:42:42.980Z,-0.78
2019-01-25T05:43:23.545Z,-0.7
2019-01-25T05:44:04.102Z,-0.62
2019-01-25T05:44:44.673Z,-0.68
2019-01-25T05:45:25.238Z,-0.71
2019-01-25T05:46:05.785Z,-0.64
2019-01-25T05:46:46.354Z,-0.68
2019-01-25T05:47:26.940Z,-0.75
2019-01-25T05:48:07.508Z,-0.64
2019-01-25T05:48:48.058Z,-0.78
2019-01-25T05:49:28.630Z,-0.7
2019-01-25T05:50:09.190Z,-0.72
2019-01-25T05:50:49.750Z,-0.64
2019-01-25T05:51:33.650Z,-0.71
2019-01-25T05:52:10.868Z,-0.68
2019-01-25T05:52:51.416Z,-0.72
2019-01-25T05:53:31.974Z,-0.71
2019-01-25T05:54:12.680Z,-0.8
2019-01-25T05:54:53.449Z,-0.71
2019-01-25T05:55:34.400Z,-0.77
2019-01-25T05:56:15.608Z,-0.77
2019-01-25T05:56:56.644Z,-0.8
2019-01-25T05:57:37.717Z,-0.8
2019-01-25T05:58:18.348Z,-0.83
2019-01-25T05:58:58.893Z,-0.83
2019-01-25T05:59:39.948Z,-0.74
2019-01-25T06:00:20.698Z,-0.83
2019-01-25T06:01:01.223Z,-0.85
2019-01-25T06:01:41.773Z,-0.83
2019-01-25T06:02:22.337Z,-0.86
2019-01-25T06:03:02.919Z,-0.82
2019-01-25T06:03:43.482Z,-0.78
2019-01-25T06:04:24.032Z,-0.89
2019-01-25T06:05:04.589Z,-0.82
2019-01-25T06:05:45.158Z,-0.83
2019-01-25T06:06:25.714Z,-0.8
2019-01-25T06:07:06.299Z,-0.86
2019-01-25T06:07:46.857Z,-0.83
2019-01-25T06:08:27.421Z,-0.89
2019-01-25T06:09:07.965Z,-0.83
2019-01-25T06:09:48.531Z,-0.8
2019-01-25T06:10:29.095Z,-0.83
2019-01-25T06:11:09.665Z,-0.8
2019-01-25T06:11:50.241Z,-0.77
2019-01-25T06:12:30.805Z,-0.71
2019-01-25T06:13:11.402Z,-0.8
2019-01-25T06:13:51.969Z,-0.74
2019-01-25T06:14:32.517Z,-0.72
2019-01-25T06:15:13.122Z,-0.71
2019-01-25T06:15:53.657Z,-0.78
2019-01-25T06:16:34.222Z,-0.78
2019-01-25T06:17:14.771Z,-0.72
2019-01-25T06:17:55.321Z,-0.71
2019-01-25T06:18:35.886Z,-0.77
2019-01-25T06:19:16.457Z,-0.7
2019-01-25T06:19:57.002Z,-0.78
2019-01-25T06:20:37.558Z,-0.74
2019-01-25T06:21:18.119Z,-0.78
2019-01-25T06:21:58.690Z,-0.72
2019-01-25T06:22:39.252Z,-0.77
2019-01-25T06:23:19.829Z,-0.78
2019-01-25T06:24:00.373Z,-0.78
2019-01-25T06:24:40.933Z,-0.75
2019-01-25T06:25:21.495Z,-0.75
2019-01-25T06:26:02.059Z,-0.72
2019-01-25T06:26:42.668Z,-0.68
2019-01-25T06:27:23.221Z,-0.82
2019-01-25T06:28:03.803Z,-0.71
2019-01-25T06:28:44.368Z,-0.82
2019-01-25T06:29:24.930Z,-0.72
2019-01-25T06:30:05.517Z,-0.78
2019-01-25T06:30:46.068Z,-0.74
2019-01-25T06:31:26.640Z,-0.77
2019-01-25T06:32:07.190Z,-0.72
2019-01-25T06:32:47.763Z,-0.77
2019-01-25T06:33:28.333Z,-0.71
2019-01-25T06:34:08.890Z,-0.72
2019-01-25T06:34:49.455Z,-0.74
2019-01-25T06:35:30.058Z,-0.82
2019-01-25T06:36:10.606Z,-0.8
2019-01-25T06:36:51.166Z,-0.74
2019-01-25T06:37:31.721Z,-0.82
2019-01-25T06:38:12.289Z,-0.75
2019-01-25T06:38:52.850Z,-0.82
2019-01-25T06:39:33.409Z,-0.78
2019-01-25T06:40:13.966Z,-0.77
2019-01-25T06:40:54.543Z,-0.8
2019-01-25T06:41:35.100Z,-0.68
2019-01-25T06:42:15.669Z,-0.7
2019-01-25T06:42:56.219Z,-0.82
2019-01-25T06:43:37.245Z,-0.77
2019-01-25T06:44:17.824Z,-0.72
2019-01-25T06:44:58.385Z,-0.71
2019-01-25T06:45:38.945Z,-0.75
2019-01-25T06:46:19.490Z,-0.71
2019-01-25T06:47:00.061Z,-0.8
2019-01-25T06:47:40.604Z,-0.71
2019-01-25T06:48:21.166Z,-0.71
2019-01-25T06:49:01.747Z,-0.78
2019-01-25T06:49:42.301Z,-0.77
2019-01-25T06:50:22.865Z,-0.82
2019-01-25T06:51:03.440Z,-0.75
2019-01-25T06:51:43.991Z,-0.78
2019-01-25T06:52:24.554Z,-0.74
2019-01-25T06:53:05.133Z,-0.77
2019-01-25T06:53:45.718Z,-0.77
2019-01-25T06:54:26.281Z,-0.77
2019-01-25T06:55:06.835Z,-0.82
2019-01-25T06:55:47.447Z,-0.77
2019-01-25T06:56:28.009Z,-0.82
2019-01-25T06:57:08.585Z,-0.71
2019-01-25T06:57:49.139Z,-0.77
2019-01-25T06:58:29.705Z,-0.78
2019-01-25T06:59:10.257Z,-0.74
2019-01-25T06:59:50.805Z,-0.77
2019-01-25T07:00:31.365Z,-0.78
2019-01-25T07:01:11.923Z,-0.78
2019-01-25T07:01:52.495Z,-0.75
2019-01-25T07:02:33.037Z,-0.77
2019-01-25T07:03:13.593Z,-0.71
2019-01-25T07:03:54.160Z,-0.78
2019-01-25T07:04:34.729Z,-0.78
2019-01-25T07:05:15.306Z,-0.82
2019-01-25T07:05:55.858Z,-0.8
2019-01-25T07:06:36.417Z,-0.78
2019-01-25T07:07:16.972Z,-0.74
2019-01-25T07:07:57.551Z,-0.72
2019-01-25T07:08:38.137Z,-0.78
2019-01-25T07:09:18.706Z,-0.75
2019-01-25T07:09:59.268Z,-0.71
2019-01-25T07:10:39.854Z,-0.71
2019-01-25T07:11:20.421Z,-0.71
2019-01-25T07:12:00.983Z,-0.74
2019-01-25T07:12:41.598Z,-0.75
2019-01-25T07:13:22.150Z,-0.7
2019-01-25T07:14:02.757Z,-0.71
2019-01-25T07:14:43.338Z,-0.71
2019-01-25T07:15:23.906Z,-0.75
2019-01-25T07:16:04.460Z,-0.67
2019-01-25T07:16:45.128Z,-0.64
2019-01-25T07:17:25.684Z,-0.72
2019-01-25T07:18:06.251Z,-0.59
2019-01-25T07:18:46.807Z,-0.62
2019-01-25T07:19:27.373Z,-0.61
2019-01-25T07:20:07.974Z,-0.65
2019-01-25T07:20:48.547Z,-0.62
2019-01-25T07:21:29.102Z,-0.64
2019-01-25T07:22:09.668Z,-0.65
2019-01-25T07:22:50.233Z,-0.62
2019-01-25T07:23:30.771Z,-0.46
2019-01-25T07:24:11.352Z,-0.26
2019-01-25T07:24:57.074Z,0.11
2019-01-25T07:25:32.473Z,0.43
2019-01-25T07:26:13.022Z,0.73
2019-01-25T07:26:53.596Z,1.05
2019-01-25T07:27:34.141Z,1.31
2019-01-25T07:28:14.696Z,1.63
2019-01-25T07:28:55.255Z,1.97
2019-01-25T07:29:35.825Z,2.24
2019-01-25T07:30:16.553Z,2.38
2019-01-25T07:30:56.999Z,2.5
2019-01-25T07:31:37.549Z,2.53
2019-01-25T07:32:18.241Z,2.38
2019-01-25T07:32:58.706Z,2.33
2019-01-25T07:33:39.326Z,2.13
2019-01-25T07:34:19.910Z,2.06
2019-01-25T07:35:00.499Z,1.92
2019-01-25T07:35:41.034Z,1.78
2019-01-25T07:36:21.602Z,1.6
2019-01-25T07:37:02.152Z,1.53
2019-01-25T07:37:42.744Z,1.34
2019-01-25T07:38:23.405Z,1.22
2019-01-25T07:39:04.027Z,1.17
2019-01-25T07:39:44.606Z,1.17
2019-01-25T07:40:25.134Z,1.02
2019-01-25T07:41:05.688Z,0.91
2019-01-25T07:41:46.239Z,0.84
2019-01-25T07:42:26.950Z,0.76
2019-01-25T07:43:07.615Z,0.76
2019-01-25T07:43:48.197Z,0.65
2019-01-25T07:44:28.798Z,0.56
2019-01-25T07:45:09.429Z,0.49
2019-01-25T07:45:50.076Z,0.4
2019-01-25T07:46:30.651Z,0.44
2019-01-25T07:47:11.211Z,0.34
2019-01-25T07:47:51.772Z,0.29
2019-01-25T07:48:34.131Z,0.26
2019-01-25T07:49:13.792Z,0.21
2019-01-25T07:49:56.922Z,0.22
2019-01-25T07:50:37.485Z,0.18
2019-01-25T07:51:18.042Z,0.19
2019-01-25T07:51:58.618Z,0.23
2019-01-25T07:52:39.197Z,0.16
2019-01-25T07:53:19.782Z,0.12
2019-01-25T07:54:00.329Z,0.18
2019-01-25T07:54:40.878Z,0.1
2019-01-25T07:55:21.523Z,0.16
2019-01-25T07:56:02.470Z,0.03
2019-01-25T07:56:43.041Z,0.08
2019-01-25T07:57:23.615Z,0.1
2019-01-25T07:58:04.345Z,0.05
2019-01-25T07:58:44.902Z,-0.02
2019-01-25T07:59:25.797Z,-0.03
2019-01-25T08:00:06.133Z,0.03
2019-01-25T08:00:46.892Z,-0.07
2019-01-25T08:01:27.595Z,-0.02
2019-01-25T08:02:08.269Z,-0.03
2019-01-25T08:02:50.060Z,-0.13
2019-01-25T08:03:30.609Z,-0.1
2019-01-25T08:04:11.186Z,-0.15
2019-01-25T08:04:51.938Z,-0.08
2019-01-25T08:05:33.541Z,-0.14
2019-01-25T08:06:14.231Z,-0.15
2019-01-25T08:06:56.340Z,-0.2
2019-01-25T08:07:37.901Z,-0.2
2019-01-25T08:08:19.441Z,-0.08
2019-01-25T08:09:01.433Z,-0.15
2019-01-25T08:09:42.972Z,-0.15
2019-01-25T08:10:23.787Z,-0.1
2019-01-25T08:11:05.498Z,-0.17
2019-01-25T08:11:47.661Z,-0.17
2019-01-25T08:12:30.243Z,-0.17
2019-01-25T08:13:11.410Z,-0.26
2019-01-25T08:13:52.317Z,-0.18
2019-01-25T08:14:32.918Z,-0.23
2019-01-25T08:15:13.606Z,-0.25
2019-01-25T08:15:54.538Z,-0.28
2019-01-25T08:16:35.142Z,-0.34
2019-01-25T08:17:15.961Z,-0.35
2019-01-25T08:17:57.473Z,-0.32
2019-01-25T08:18:38.529Z,-0.21
2019-01-25T08:19:19.298Z,-0.21
2019-01-25T08:19:59.877Z,-0.32
2019-01-25T08:20:40.429Z,-0.31
2019-01-25T08:21:20.971Z,-0.28
2019-01-25T08:22:01.687Z,-0.34
2019-01-25T08:22:42.313Z,-0.25
2019-01-25T08:23:22.976Z,-0.32
2019-01-25T08:24:03.510Z,-0.29
2019-01-25T08:24:44.056Z,-0.35
2019-01-25T08:25:24.653Z,-0.23
2019-01-25T08:26:05.296Z,-0.31
2019-01-25T08:26:45.790Z,-0.35
2019-01-25T08:27:26.338Z,-0.26
2019-01-25T08:28:07.101Z,-0.29
2019-01-25T08:28:47.688Z,-0.34
2019-01-25T08:29:28.436Z,-0.35
2019-01-25T08:30:08.804Z,-0.26
2019-01-25T08:30:49.365Z,-0.41
2019-01-25T08:31:29.963Z,-0.29
2019-01-25T08:32:10.475Z,-0.21
2019-01-25T08:32:51.103Z,-0.28
2019-01-25T08:33:31.607Z,-0.35
2019-01-25T08:34:12.156Z,-0.36
2019-01-25T08:34:53.023Z,-0.36
2019-01-25T08:35:33.470Z,-0.28
2019-01-25T08:36:14.033Z,-0.26
2019-01-25T08:36:54.588Z,-0.25
2019-01-25T08:37:35.140Z,-0.25
2019-01-25T08:38:15.704Z,-0.31
2019-01-25T08:38:56.264Z,-0.28
2019-01-25T08:39:36.807Z,-0.28
2019-01-25T08:40:17.354Z,-0.34
2019-01-25T08:40:57.906Z,-0.35
2019-01-25T08:41:38.580Z,-0.21
2019-01-25T08:42:19.145Z,-0.25
2019-01-25T08:42:59.713Z,-0.36
2019-01-25T08:43:40.617Z,-0.31
2019-01-25T08:44:21.184Z,-0.36
2019-01-25T08:45:01.756Z,-0.32
2019-01-25T08:45:42.344Z,-0.32